createdAt,value
2018-02-12T00:00:20.233Z,97.38
2018-02-12T00:01:20.239Z,97.96
2018-02-12T00:02:20.201Z,97.57
2018-02-12T00:03:20.209Z,97.77
2018-02-12T00:04:20.190Z,98.05
2018-02-12T00:05:20.168Z,97.86
2018-02-12T00:06:20.157Z,98.05
2018-02-12T00:07:20.135Z,98.54
2018-02-12T00:08:20.114Z,98.44
2018-02-12T00:09:20.066Z,98.44
2018-02-12T00:10:20.077Z,98.35
2018-02-12T00:11:20.042Z,98.93
2018-02-12T00:12:20.021Z,98.35
2018-02-12T00:13:20.027Z,98.39
2018-02-12T00:14:19.990Z,98.49
2018-02-12T00:15:19.968Z,98.49
2018-02-12T00:16:19.961Z,98.54
2018-02-12T00:17:19.959Z,98.25
2018-02-12T00:18:19.921Z,97.77
2018-02-12T00:19:19.893Z,98.05
2018-02-12T00:20:19.874Z,97.38
2018-02-12T00:21:19.891Z,97.18
2018-02-12T00:22:19.852Z,97.33
2018-02-12T00:23:19.839Z,97.33
2018-02-12T00:24:19.804Z,96.80
2018-02-12T00:25:19.784Z,95.83
2018-02-12T00:26:19.799Z,95.83
2018-02-12T00:27:19.747Z,96.22
2018-02-12T00:28:19.756Z,95.44
2018-02-12T00:29:19.710Z,95.68
2018-02-12T00:30:19.697Z,96.02
2018-02-12T00:31:19.677Z,96.12
2018-02-12T00:32:19.666Z,96.75
2018-02-12T00:33:19.651Z,96.56
2018-02-12T00:34:19.647Z,96.94
2018-02-12T00:35:19.603Z,97.23
2018-02-12T00:36:19.602Z,98.00
2018-02-12T00:37:19.565Z,97.33
2018-02-12T00:38:19.549Z,97.04
2018-02-12T00:39:19.532Z,96.84
2018-02-12T00:40:19.526Z,95.98
2018-02-12T00:41:19.499Z,96.07
2018-02-12T00:42:19.483Z,96.75
2018-02-12T00:43:19.464Z,96.36
2018-02-12T00:44:19.447Z,96.84
2018-02-12T00:45:19.440Z,95.30
2018-02-12T00:46:19.410Z,95.68
2018-02-12T00:47:19.387Z,95.68
2018-02-12T00:48:19.368Z,95.78
2018-02-12T00:49:19.354Z,95.68
2018-02-12T00:50:19.365Z,95.40
2018-02-12T00:51:19.318Z,95.40
2018-02-12T00:52:19.331Z,95.40
2018-02-12T00:53:19.283Z,95.68
2018-02-12T00:54:19.266Z,95.68
2018-02-12T00:55:19.251Z,96.07
2018-02-12T00:56:19.235Z,95.20
2018-02-12T00:57:19.240Z,95.40
2018-02-12T00:58:19.198Z,96.07
2018-02-12T00:59:19.205Z,95.59
2018-02-12T01:00:19.191Z,95.59
2018-02-12T01:01:19.141Z,95.49
2018-02-12T01:02:19.124Z,95.30
2018-02-12T01:03:19.131Z,95.59
2018-02-12T01:04:19.085Z,95.78
2018-02-12T01:05:19.082Z,96.07
2018-02-12T01:06:19.079Z,96.75
2018-02-12T01:07:19.031Z,96.84
2018-02-12T01:08:19.015Z,96.94
2018-02-12T01:09:18.996Z,96.94
2018-02-12T01:10:18.981Z,97.33
2018-02-12T01:11:18.987Z,96.84
2018-02-12T01:12:18.946Z,96.84
2018-02-12T01:13:18.925Z,96.56
2018-02-12T01:14:18.918Z,96.46
2018-02-12T01:15:18.897Z,96.75
2018-02-12T01:16:18.879Z,96.46
2018-02-12T01:17:18.879Z,96.75
2018-02-12T01:18:18.861Z,96.65
2018-02-12T01:19:18.845Z,97.52
2018-02-12T01:20:18.798Z,96.94
2018-02-12T01:21:18.805Z,97.23
2018-02-12T01:22:18.793Z,97.23
2018-02-12T01:23:18.775Z,98.00
2018-02-12T01:24:18.734Z,97.42
2018-02-12T01:25:18.716Z,97.72
2018-02-12T01:26:18.719Z,97.42
2018-02-12T01:27:18.705Z,97.91
2018-02-12T01:28:18.669Z,98.30
2018-02-12T01:29:18.637Z,97.67
2018-02-12T01:30:18.621Z,97.81
2018-02-12T01:31:18.600Z,98.39
2018-02-12T01:32:18.585Z,98.10
2018-02-12T01:33:18.580Z,98.49
2018-02-12T01:34:18.573Z,98.10
2018-02-12T01:35:18.529Z,98.35
2018-02-12T01:36:18.527Z,98.54
2018-02-12T01:37:18.523Z,98.35
2018-02-12T01:38:18.500Z,98.54
2018-02-12T01:39:18.484Z,98.83
2018-02-12T01:40:18.473Z,98.73
2018-02-12T01:41:18.447Z,98.88
2018-02-12T01:42:18.433Z,98.63
2018-02-12T01:43:18.413Z,98.30
2018-02-12T01:44:18.402Z,98.39
2018-02-12T01:45:18.379Z,98.83
2018-02-12T01:46:18.366Z,98.97
2018-02-12T01:47:18.316Z,99.11
2018-02-12T01:48:18.299Z,99.02
2018-02-12T01:49:18.310Z,98.30
2018-02-12T01:50:18.292Z,98.39
2018-02-12T01:51:18.275Z,98.58
2018-02-12T01:52:18.235Z,98.68
2018-02-12T01:53:18.242Z,98.78
2018-02-12T01:54:18.196Z,98.10
2018-02-12T01:55:18.174Z,98.68
2018-02-12T01:56:18.484Z,98.63
2018-02-12T01:57:18.137Z,98.97
2018-02-12T01:58:18.125Z,98.97
2018-02-12T01:59:18.130Z,98.83
2018-02-12T02:00:18.117Z,98.73
2018-02-12T02:01:18.090Z,98.44
2018-02-12T02:02:18.050Z,98.73
2018-02-12T02:03:18.045Z,99.02
2018-02-12T02:04:18.038Z,99.11
2018-02-12T02:05:18.006Z,99.31
2018-02-12T02:06:17.983Z,98.63
2018-02-12T02:07:17.961Z,98.93
2018-02-12T02:08:17.945Z,99.02
2018-02-12T02:09:17.924Z,99.11
2018-02-12T02:10:17.905Z,98.93
2018-02-12T02:11:17.890Z,99.02
2018-02-12T02:12:17.886Z,99.21
2018-02-12T02:13:17.862Z,98.54
2018-02-12T02:14:17.847Z,98.73
2018-02-12T02:15:17.816Z,98.73
2018-02-12T02:16:17.801Z,98.73
2018-02-12T02:17:17.805Z,99.11
2018-02-12T02:18:17.758Z,99.02
2018-02-12T02:19:17.746Z,99.79
2018-02-12T02:20:17.755Z,99.21
2018-02-12T02:21:17.736Z,99.31
2018-02-12T02:22:17.697Z,99.99
2018-02-12T02:23:17.685Z,99.60
2018-02-12T02:24:17.657Z,99.60
2018-02-12T02:25:17.647Z,99.60
2018-02-12T02:26:17.633Z,99.41
2018-02-12T02:27:17.616Z,99.02
2018-02-12T02:28:17.588Z,99.60
2018-02-12T02:29:17.599Z,99.41
2018-02-12T02:30:17.542Z,99.21
2018-02-12T02:31:17.562Z,99.50
2018-02-12T02:32:17.514Z,99.31
2018-02-12T02:33:17.524Z,99.99
2018-02-12T02:34:17.502Z,99.99
2018-02-12T02:35:17.453Z,99.41
2018-02-12T02:36:17.438Z,99.99
2018-02-12T02:37:17.427Z,99.50
2018-02-12T02:38:17.415Z,99.69
2018-02-12T02:39:17.396Z,99.21
2018-02-12T02:40:17.385Z,99.41
2018-02-12T02:41:17.381Z,99.99
2018-02-12T02:42:17.340Z,99.69
2018-02-12T02:43:17.316Z,99.79
2018-02-12T02:44:17.313Z,98.83
2018-02-12T02:45:17.307Z,98.54
2018-02-12T02:46:17.264Z,98.63
2018-02-12T02:47:17.256Z,98.73
2018-02-12T02:48:17.231Z,98.83
2018-02-12T02:49:17.209Z,99.21
2018-02-12T02:50:17.205Z,99.11
2018-02-12T02:51:17.178Z,99.41
2018-02-12T02:52:17.157Z,99.02
2018-02-12T02:53:17.142Z,98.93
2018-02-12T02:54:17.120Z,99.02
2018-02-12T02:55:17.109Z,99.11
2018-02-12T02:56:17.110Z,99.02
2018-02-12T02:57:17.092Z,99.21
2018-02-12T02:58:17.063Z,99.21
2018-02-12T02:59:17.039Z,99.69
2018-02-12T03:00:17.043Z,99.69
2018-02-12T03:01:16.996Z,99.99
2018-02-12T03:02:16.986Z,99.79
2018-02-12T03:03:16.962Z,99.99
2018-02-12T03:04:16.943Z,99.79
2018-02-12T03:05:16.926Z,99.99
2018-02-12T03:06:16.941Z,99.89
2018-02-12T03:07:16.918Z,99.99
2018-02-12T03:08:16.901Z,99.99
2018-02-12T03:09:16.890Z,99.99
2018-02-12T03:10:16.843Z,99.99
2018-02-12T03:11:16.821Z,99.99
2018-02-12T03:12:16.797Z,99.99
2018-02-12T03:13:16.811Z,99.99
2018-02-12T03:14:16.775Z,99.99
2018-02-12T03:15:16.749Z,99.99
2018-02-12T03:16:16.740Z,99.99
2018-02-12T03:17:16.718Z,99.99
2018-02-12T03:18:16.713Z,99.99
2018-02-12T03:19:16.702Z,99.99
2018-02-12T03:20:16.655Z,99.99
2018-02-12T03:21:16.636Z,99.99
2018-02-12T03:22:16.624Z,99.99
2018-02-12T03:23:16.600Z,99.99
2018-02-12T03:24:16.585Z,99.99
2018-02-12T03:25:16.570Z,99.99
2018-02-12T03:26:16.575Z,99.99
2018-02-12T03:27:16.557Z,99.89
2018-02-12T03:28:16.511Z,99.89
2018-02-12T03:29:16.518Z,99.41
2018-02-12T03:30:16.507Z,99.69
2018-02-12T03:31:16.458Z,99.99
2018-02-12T03:32:16.439Z,99.60
2018-02-12T03:33:16.421Z,99.89
2018-02-12T03:34:16.428Z,99.99
2018-02-12T03:35:16.386Z,99.89
2018-02-12T03:36:16.367Z,99.99
2018-02-12T03:37:16.350Z,99.99
2018-02-12T03:38:16.328Z,99.69
2018-02-12T03:39:16.326Z,99.99
2018-02-12T03:40:16.294Z,99.99
2018-02-12T03:41:16.270Z,99.99
2018-02-12T03:42:16.260Z,99.99
2018-02-12T03:43:16.231Z,99.99
2018-02-12T03:44:16.247Z,99.99
2018-02-12T03:45:16.758Z,99.99
2018-02-12T03:46:16.183Z,99.99
2018-02-12T03:47:16.162Z,99.99
2018-02-12T03:48:16.140Z,99.79
2018-02-12T03:49:16.152Z,99.99
2018-02-12T03:50:16.117Z,99.99
2018-02-12T03:51:16.104Z,99.99
2018-02-12T03:52:16.072Z,99.60
2018-02-12T03:53:16.054Z,99.60
2018-02-12T03:54:16.068Z,99.02
2018-02-12T03:55:16.020Z,98.73
2018-02-12T03:56:16.030Z,98.73
2018-02-12T03:57:15.986Z,99.79
2018-02-12T03:58:15.989Z,98.73
2018-02-12T03:59:15.970Z,99.79
2018-02-12T04:00:15.926Z,99.60
2018-02-12T04:01:15.905Z,99.41
2018-02-12T04:02:15.893Z,99.99
2018-02-12T04:03:15.901Z,99.02
2018-02-12T04:04:15.856Z,99.41
2018-02-12T04:05:15.833Z,99.60
2018-02-12T04:06:15.845Z,99.99
2018-02-12T04:07:15.824Z,98.93
2018-02-12T04:08:15.809Z,99.41
2018-02-12T04:09:15.770Z,99.21
2018-02-12T04:10:15.746Z,98.63
2018-02-12T04:11:15.729Z,99.21
2018-02-12T04:12:15.710Z,98.25
2018-02-12T04:13:15.692Z,96.99
2018-02-12T04:14:15.702Z,96.70
2018-02-12T04:15:15.679Z,97.28
2018-02-12T04:16:15.636Z,97.52
2018-02-12T04:17:15.629Z,98.63
2018-02-12T04:18:15.617Z,98.54
2018-02-12T04:19:15.589Z,98.54
2018-02-12T04:20:15.580Z,98.44
2018-02-12T04:21:15.568Z,98.44
2018-02-12T04:22:15.553Z,98.44
2018-02-12T04:23:15.506Z,98.54
2018-02-12T04:24:15.498Z,99.89
2018-02-12T04:25:15.471Z,99.50
2018-02-12T04:26:15.456Z,98.54
2018-02-12T04:27:15.438Z,98.35
2018-02-12T04:28:15.415Z,97.77
2018-02-12T04:29:15.410Z,97.86
2018-02-12T04:30:15.391Z,97.67
2018-02-12T04:31:15.360Z,97.96
2018-02-12T04:32:15.353Z,97.67
2018-02-12T04:33:15.327Z,97.96
2018-02-12T04:34:15.302Z,97.47
2018-02-12T04:35:15.286Z,97.86
2018-02-12T04:36:15.296Z,97.57
2018-02-12T04:37:15.274Z,97.96
2018-02-12T04:38:15.236Z,96.51
2018-02-12T04:39:15.216Z,97.09
2018-02-12T04:40:15.227Z,95.73
2018-02-12T04:41:15.175Z,96.51
2018-02-12T04:42:15.157Z,98.05
2018-02-12T04:43:15.139Z,97.28
2018-02-12T04:44:15.122Z,96.80
2018-02-12T04:45:15.118Z,97.19
2018-02-12T04:46:15.091Z,96.22
2018-02-12T04:47:15.100Z,96.70
2018-02-12T04:48:15.047Z,97.28
2018-02-12T04:49:15.053Z,97.28
2018-02-12T04:50:15.045Z,97.67
2018-02-12T04:51:14.991Z,98.35
2018-02-12T04:52:15.008Z,97.67
2018-02-12T04:53:14.954Z,98.05
2018-02-12T04:54:14.943Z,97.81
2018-02-12T04:55:14.944Z,98.39
2018-02-12T04:56:14.929Z,98.20
2018-02-12T04:57:14.880Z,98.39
2018-02-12T04:58:14.894Z,98.39
2018-02-12T04:59:14.851Z,98.49
2018-02-12T05:00:14.831Z,98.39
2018-02-12T05:01:14.807Z,98.58
2018-02-12T05:02:14.804Z,98.97
2018-02-12T05:03:14.786Z,99.36
2018-02-12T05:04:14.756Z,99.55
2018-02-12T05:05:14.736Z,99.45
2018-02-12T05:06:14.721Z,99.55
2018-02-12T05:07:14.699Z,99.36
2018-02-12T05:08:14.707Z,99.45
2018-02-12T05:09:14.684Z,99.36
2018-02-12T05:10:14.674Z,99.36
2018-02-12T05:11:14.633Z,99.99
2018-02-12T05:12:14.615Z,99.55
2018-02-12T05:13:14.586Z,99.74
2018-02-12T05:14:14.594Z,99.55
2018-02-12T05:15:14.553Z,99.99
2018-02-12T05:16:14.534Z,99.94
2018-02-12T05:17:14.511Z,99.99
2018-02-12T05:18:14.492Z,99.99
2018-02-12T05:19:14.499Z,99.99
2018-02-12T05:20:14.457Z,99.99
2018-02-12T05:21:14.436Z,99.99
2018-02-12T05:22:14.447Z,99.99
2018-02-12T05:23:14.428Z,99.99
2018-02-12T05:24:14.406Z,99.99
2018-02-12T05:25:14.358Z,99.99
2018-02-12T05:26:14.372Z,99.99
2018-02-12T05:27:14.357Z,99.99
2018-02-12T05:28:14.341Z,99.99
2018-02-12T05:29:14.289Z,99.99
2018-02-12T05:30:14.297Z,99.99
2018-02-12T05:31:14.280Z,99.99
2018-02-12T05:32:14.244Z,99.99
2018-02-12T05:33:14.245Z,99.99
2018-02-12T05:34:14.199Z,99.99
2018-02-12T05:35:14.186Z,99.74
2018-02-12T05:36:14.160Z,99.99
2018-02-12T05:37:14.138Z,99.84
2018-02-12T05:38:14.132Z,99.84
2018-02-12T05:39:14.136Z,99.74
2018-02-12T05:40:14.085Z,99.99
2018-02-12T05:41:14.066Z,99.99
2018-02-12T05:42:14.050Z,99.99
2018-02-12T05:43:14.061Z,99.99
2018-02-12T05:44:14.011Z,99.99
2018-02-12T05:45:14.009Z,99.99
2018-02-12T05:46:13.997Z,99.99
2018-02-12T05:47:13.990Z,99.99
2018-02-12T05:48:13.954Z,99.99
2018-02-12T05:49:13.943Z,99.99
2018-02-12T05:50:13.900Z,99.99
2018-02-12T05:51:13.882Z,99.99
2018-02-12T05:52:13.891Z,99.99
2018-02-12T05:53:13.856Z,99.99
2018-02-12T05:54:13.825Z,99.99
2018-02-12T05:55:13.830Z,99.99
2018-02-12T05:56:13.785Z,99.99
2018-02-12T05:57:13.774Z,99.99
2018-02-12T05:58:13.753Z,99.99
2018-02-12T05:59:13.729Z,99.99
2018-02-12T06:00:13.718Z,99.99
2018-02-12T06:01:13.720Z,99.99
2018-02-12T06:02:13.701Z,99.99
2018-02-12T06:03:13.672Z,99.99
2018-02-12T06:04:13.636Z,99.99
2018-02-12T06:05:13.618Z,99.99
2018-02-12T06:06:13.618Z,99.99
2018-02-12T06:07:13.609Z,99.99
2018-02-12T06:08:13.565Z,99.99
2018-02-12T06:09:13.543Z,99.99
2018-02-12T06:10:13.542Z,99.99
2018-02-12T06:11:13.507Z,99.99
2018-02-12T06:12:13.495Z,99.99
2018-02-12T06:13:13.475Z,99.99
2018-02-12T06:14:13.449Z,99.99
2018-02-12T06:15:13.460Z,99.99
2018-02-12T06:16:13.443Z,99.99
2018-02-12T06:17:13.423Z,99.99
2018-02-12T06:18:13.407Z,99.99
2018-02-12T06:19:13.385Z,99.99
2018-02-12T06:20:13.364Z,99.99
2018-02-12T06:21:13.349Z,99.99
2018-02-12T06:22:13.326Z,99.99
2018-02-12T06:23:13.282Z,99.99
2018-02-12T06:24:13.290Z,99.99
2018-02-12T06:25:13.273Z,99.99
2018-02-12T06:26:13.231Z,99.99
2018-02-12T06:27:13.221Z,99.99
2018-02-12T06:28:13.189Z,99.99
2018-02-12T06:29:13.173Z,99.99
2018-02-12T06:30:13.152Z,99.99
2018-02-12T06:31:13.134Z,99.99
2018-02-12T06:32:13.122Z,99.99
2018-02-12T06:33:13.100Z,99.99
2018-02-12T06:34:13.076Z,99.99
2018-02-12T06:35:13.059Z,99.99
2018-02-12T06:36:13.043Z,99.99
2018-02-12T06:37:13.102Z,99.99
2018-02-12T06:38:13.001Z,99.99
2018-02-12T06:39:13.013Z,99.99
2018-02-12T06:40:12.966Z,99.99
2018-02-12T06:41:12.950Z,99.99
2018-02-12T06:42:12.955Z,99.99
2018-02-12T06:43:12.908Z,99.99
2018-02-12T06:44:12.889Z,99.99
2018-02-12T06:45:12.872Z,99.99
2018-02-12T06:46:12.849Z,99.99
2018-02-12T06:47:12.845Z,99.99
2018-02-12T06:48:12.826Z,99.99
2018-02-12T06:49:12.796Z,99.99
2018-02-12T06:50:12.790Z,99.99
2018-02-12T06:51:12.776Z,99.99
2018-02-12T06:52:12.743Z,99.99
2018-02-12T06:53:12.729Z,99.99
2018-02-12T06:54:12.703Z,99.99
2018-02-12T06:55:12.687Z,99.99
2018-02-12T06:56:12.665Z,99.99
2018-02-12T06:57:12.676Z,99.99
2018-02-12T06:58:12.656Z,99.99
2018-02-12T06:59:12.633Z,99.99
2018-02-12T07:00:12.590Z,99.99
2018-02-12T07:01:12.587Z,99.99
2018-02-12T07:02:12.559Z,99.99
2018-02-12T07:03:12.536Z,99.99
2018-02-12T07:04:12.545Z,99.99
2018-02-12T07:05:12.523Z,99.99
2018-02-12T07:06:12.506Z,99.99
2018-02-12T07:07:12.460Z,99.99
2018-02-12T07:08:12.439Z,99.99
2018-02-12T07:09:12.422Z,99.99
2018-02-12T07:10:12.435Z,99.99
2018-02-12T07:11:12.382Z,99.99
2018-02-12T07:12:12.362Z,99.99
2018-02-12T07:13:12.346Z,99.99
2018-02-12T07:14:12.340Z,99.99
2018-02-12T07:15:12.309Z,99.99
2018-02-12T07:16:12.314Z,99.99
2018-02-12T07:17:12.273Z,99.99
2018-02-12T07:18:12.252Z,99.99
2018-02-12T07:19:12.239Z,99.99
2018-02-12T07:20:12.223Z,99.99
2018-02-12T07:21:12.202Z,99.99
2018-02-12T07:22:12.194Z,99.99
2018-02-12T07:23:12.155Z,99.99
2018-02-12T07:24:12.150Z,99.99
2018-02-12T07:25:12.134Z,99.99
2018-02-12T07:26:12.103Z,99.99
2018-02-12T07:27:12.084Z,99.99
2018-02-12T07:28:12.091Z,99.99
2018-02-12T07:29:12.048Z,99.99
2018-02-12T07:30:12.030Z,99.99
2018-02-12T07:31:12.010Z,99.99
2018-02-12T07:32:11.984Z,99.99
2018-02-12T07:33:11.990Z,99.99
2018-02-12T07:34:11.959Z,99.99
2018-02-12T07:35:11.925Z,99.99
2018-02-12T07:36:11.941Z,99.99
2018-02-12T07:37:11.903Z,99.99
2018-02-12T07:38:11.901Z,99.99
2018-02-12T07:39:11.877Z,99.99
2018-02-12T07:40:11.833Z,99.99
2018-02-12T07:41:45.052Z,99.99
2018-02-12T07:42:11.794Z,99.99
2018-02-12T07:43:11.792Z,99.99
2018-02-12T07:44:11.759Z,99.99
2018-02-12T07:45:11.742Z,99.99
2018-02-12T07:46:11.753Z,99.99
2018-02-12T07:47:11.727Z,99.99
2018-02-12T07:48:11.681Z,99.99
2018-02-12T07:49:11.670Z,99.99
2018-02-12T07:50:11.668Z,99.99
2018-02-12T07:51:11.650Z,99.99
2018-02-12T07:52:11.635Z,99.99
2018-02-12T07:53:11.602Z,99.99
2018-02-12T07:54:11.593Z,99.99
2018-02-12T07:55:11.574Z,99.99
2018-02-12T07:56:11.557Z,99.99
2018-02-12T07:57:11.540Z,99.99
2018-02-12T07:58:11.492Z,99.99
2018-02-12T07:59:11.499Z,99.99
2018-02-12T08:00:11.482Z,99.99
2018-02-12T08:01:11.439Z,99.99
2018-02-12T08:02:11.431Z,99.99
2018-02-12T08:03:11.397Z,99.99
2018-02-12T08:04:11.381Z,99.99
2018-02-12T08:05:11.372Z,99.99
2018-02-12T08:06:11.345Z,99.99
2018-02-12T08:07:11.350Z,99.99
2018-02-12T08:08:11.315Z,99.99
2018-02-12T08:09:11.286Z,99.99
2018-02-12T08:10:11.296Z,99.99
2018-02-12T08:11:11.249Z,99.99
2018-02-12T08:12:11.243Z,99.99
2018-02-12T08:13:11.215Z,99.99
2018-02-12T08:14:11.220Z,99.99
2018-02-12T08:15:11.199Z,99.99
2018-02-12T08:16:11.160Z,99.99
2018-02-12T08:17:11.163Z,99.99
2018-02-12T08:18:11.140Z,99.99
2018-02-12T08:19:11.113Z,99.99
2018-02-12T08:20:11.081Z,99.99
2018-02-12T08:21:11.088Z,99.99
2018-02-12T08:22:11.050Z,99.99
2018-02-12T08:23:11.049Z,99.99
2018-02-12T08:24:11.029Z,99.99
2018-02-12T08:25:11.013Z,99.99
2018-02-12T08:26:10.996Z,99.99
2018-02-12T08:27:10.942Z,99.99
2018-02-12T08:28:10.927Z,99.99
2018-02-12T08:29:10.935Z,99.99
2018-02-12T08:30:10.911Z,99.99
2018-02-12T08:31:10.893Z,99.99
2018-02-12T08:32:10.877Z,99.99
2018-02-12T08:33:10.836Z,99.99
2018-02-12T08:34:10.809Z,99.99
2018-02-12T08:35:10.820Z,99.99
2018-02-12T08:36:10.798Z,99.99
2018-02-12T08:37:10.778Z,99.99
2018-02-12T08:38:10.760Z,99.99
2018-02-12T08:39:10.719Z,99.99
2018-02-12T08:40:10.704Z,99.99
2018-02-12T08:41:10.702Z,99.99
2018-02-12T08:42:10.685Z,99.99
2018-02-12T08:43:10.639Z,99.99
2018-02-12T08:44:10.620Z,99.99
2018-02-12T08:45:10.628Z,99.99
2018-02-12T08:46:10.609Z,99.99
2018-02-12T08:47:10.559Z,99.99
2018-02-12T08:48:10.571Z,99.99
2018-02-12T08:49:10.539Z,99.99
2018-02-12T08:50:10.506Z,99.99
2018-02-12T08:51:10.487Z,99.99
2018-02-12T08:52:10.497Z,99.99
2018-02-12T08:53:10.459Z,99.99
2018-02-12T08:54:10.454Z,99.99
2018-02-12T08:55:10.448Z,99.99
2018-02-12T08:56:10.417Z,99.99
2018-02-12T08:57:10.372Z,99.99
2018-02-12T08:58:10.361Z,99.99
2018-02-12T08:59:10.338Z,99.99
2018-02-12T09:00:10.340Z,99.99
2018-02-12T09:01:10.294Z,99.99
2018-02-12T09:02:10.296Z,99.99
2018-02-12T09:03:10.254Z,99.99
2018-02-12T09:04:10.250Z,99.99
2018-02-12T09:05:10.245Z,99.99
2018-02-12T09:06:10.224Z,99.99
2018-02-12T09:07:10.181Z,99.99
2018-02-12T09:08:10.171Z,99.99
2018-02-12T09:09:10.175Z,99.99
2018-02-12T09:10:10.120Z,99.99
2018-02-12T09:11:10.102Z,99.99
2018-02-12T09:12:10.089Z,99.99
2018-02-12T09:13:10.091Z,99.99
2018-02-12T09:14:10.046Z,99.99
2018-02-12T09:15:10.079Z,99.99
2018-02-12T09:16:10.011Z,99.99
2018-02-12T09:17:09.994Z,99.99
2018-02-12T09:18:09.972Z,99.99
2018-02-12T09:19:09.950Z,99.99
2018-02-12T09:20:09.933Z,99.99
2018-02-12T09:21:09.908Z,99.99
2018-02-12T09:22:09.885Z,98.73
2018-02-12T09:23:09.904Z,98.54
2018-02-12T09:24:09.851Z,98.49
2018-02-12T09:25:09.867Z,99.99
2018-02-12T09:26:09.844Z,99.99
2018-02-12T09:27:09.799Z,99.99
2018-02-12T09:28:09.809Z,98.73
2018-02-12T09:29:09.758Z,96.75
2018-02-12T09:30:09.769Z,95.34
2018-02-12T09:31:09.749Z,93.79
2018-02-12T09:32:09.733Z,92.68
2018-02-12T09:33:09.713Z,91.27
2018-02-12T09:34:09.674Z,89.53
2018-02-12T09:35:09.672Z,88.60
2018-02-12T09:36:09.656Z,87.68
2018-02-12T09:37:09.635Z,86.71
2018-02-12T09:38:09.625Z,86.90
2018-02-12T09:39:09.588Z,86.41
2018-02-12T09:40:09.560Z,84.42
2018-02-12T09:41:09.568Z,84.71
2018-02-12T09:42:09.522Z,84.57
2018-02-12T09:43:09.500Z,85.83
2018-02-12T09:44:09.491Z,85.93
2018-02-12T09:45:09.475Z,84.81
2018-02-12T09:46:09.456Z,83.44
2018-02-12T09:47:09.433Z,80.85
2018-02-12T09:48:09.420Z,77.97
2018-02-12T09:49:09.407Z,78.46
2018-02-12T09:50:09.389Z,78.81
2018-02-12T09:51:09.373Z,80.87
2018-02-12T09:52:09.357Z,84.28
2018-02-12T09:53:09.364Z,86.91
2018-02-12T09:54:09.325Z,90.80
2018-02-12T09:55:09.311Z,93.75
2018-02-12T09:56:09.288Z,95.93
2018-02-12T09:57:09.302Z,96.70
2018-02-12T09:58:09.281Z,96.12
2018-02-12T09:59:09.240Z,96.99
2018-02-12T10:00:09.260Z,96.12
2018-02-12T10:01:09.233Z,95.93
2018-02-12T10:02:09.188Z,96.60
2018-02-12T10:03:09.168Z,96.80
2018-02-12T10:04:09.151Z,98.49
2018-02-12T10:05:09.133Z,99.26
2018-02-12T10:06:09.120Z,99.99
2018-02-12T10:07:09.099Z,99.99
2018-02-12T10:08:09.115Z,99.99
2018-02-12T10:09:09.064Z,99.99
2018-02-12T10:10:09.063Z,99.99
2018-02-12T10:11:09.035Z,99.99
2018-02-12T10:12:09.016Z,99.99
2018-02-12T10:13:09.023Z,99.99
2018-02-12T10:14:08.977Z,94.09
2018-02-12T10:15:08.988Z,89.47
2018-02-12T10:16:08.973Z,85.33
2018-02-12T10:17:08.962Z,80.99
2018-02-12T10:18:08.935Z,77.47
2018-02-12T10:19:08.916Z,73.68
2018-02-12T10:20:08.907Z,70.95
2018-02-12T10:21:08.861Z,70.86
2018-02-12T10:22:08.841Z,71.05
2018-02-12T10:23:08.825Z,70.56
2018-02-12T10:24:08.827Z,70.86
2018-02-12T10:25:08.795Z,73.44
2018-02-12T10:26:08.804Z,79.22
2018-02-12T10:27:08.770Z,83.80
2018-02-12T10:28:08.772Z,85.65
2018-02-12T10:29:08.740Z,88.71
2018-02-12T10:30:08.739Z,90.16
2018-02-12T10:31:08.698Z,91.32
2018-02-12T10:32:08.686Z,91.08
2018-02-12T10:33:08.695Z,91.71
2018-02-12T10:34:08.675Z,87.87
2018-02-12T10:35:08.641Z,86.51
2018-02-12T10:36:08.647Z,85.40
2018-02-12T10:37:08.601Z,87.88
2018-02-12T10:38:08.593Z,89.39
2018-02-12T10:39:08.620Z,90.74
2018-02-12T10:40:08.564Z,92.00
2018-02-12T10:41:08.545Z,91.71
2018-02-12T10:42:08.527Z,91.47
2018-02-12T10:43:08.508Z,91.47
2018-02-12T10:44:08.504Z,91.86
2018-02-12T10:45:08.483Z,92.54
2018-02-12T10:46:08.468Z,92.88
2018-02-12T10:47:08.451Z,93.55
2018-02-12T10:48:08.425Z,94.43
2018-02-12T10:49:08.444Z,94.81
2018-02-12T10:50:08.388Z,94.43
2018-02-12T10:51:08.380Z,95.01
2018-02-12T10:52:08.367Z,94.62
2018-02-12T10:53:08.351Z,93.65
2018-02-12T10:54:08.326Z,94.33
2018-02-12T10:55:08.310Z,94.91
2018-02-12T10:56:08.288Z,96.26
2018-02-12T10:57:08.297Z,96.02
2018-02-12T10:58:08.280Z,97.09
2018-02-12T10:59:08.265Z,98.63
2018-02-12T11:00:08.237Z,97.77
2018-02-12T11:01:08.233Z,97.04
2018-02-12T11:02:08.186Z,95.78
2018-02-12T11:03:08.203Z,95.29
2018-02-12T11:04:08.152Z,93.94
2018-02-12T11:05:08.132Z,87.57
2018-02-12T11:06:08.132Z,78.44
2018-02-12T11:07:08.115Z,72.06
2018-02-12T11:08:08.087Z,70.31
2018-02-12T11:09:08.078Z,71.34
2018-02-12T11:10:08.086Z,69.56
2018-02-12T11:11:08.064Z,69.17
2018-02-12T11:12:08.024Z,69.98
2018-02-12T11:13:08.005Z,72.60
2018-02-12T11:14:08.003Z,75.09
2018-02-12T11:15:08.009Z,75.68
2018-02-12T11:16:07.972Z,75.81
2018-02-12T11:17:07.977Z,72.96
2018-02-12T11:18:07.967Z,69.92
2018-02-12T11:19:07.951Z,67.80
2018-02-12T11:20:07.907Z,67.61
2018-02-12T11:21:07.894Z,68.55
2018-02-12T11:22:07.902Z,70.07
2018-02-12T11:23:07.861Z,71.31
2018-02-12T11:24:07.855Z,70.56
2018-02-12T11:25:07.866Z,71.89
2018-02-12T11:26:07.849Z,70.37
2018-02-12T11:27:07.811Z,67.44
2018-02-12T11:28:07.810Z,66.11
2018-02-12T11:29:07.800Z,65.36
2018-02-12T11:30:07.797Z,64.09
2018-02-12T11:31:07.784Z,59.94
2018-02-12T11:32:07.760Z,59.01
2018-02-12T11:33:07.737Z,58.14
2018-02-12T11:34:07.749Z,56.26
2018-02-12T11:35:07.712Z,54.86
2018-02-12T11:36:07.726Z,52.72
2018-02-12T11:37:07.719Z,52.60
2018-02-12T11:38:07.700Z,51.62
2018-02-12T11:39:07.680Z,53.04
2018-02-12T11:40:07.660Z,55.68
2018-02-12T11:41:07.660Z,60.08
2018-02-12T11:42:07.641Z,63.09
2018-02-12T11:43:07.655Z,66.96
2018-02-12T11:44:07.613Z,71.14
2018-02-12T11:45:07.603Z,73.63
2018-02-12T11:46:07.595Z,71.86
2018-02-12T11:47:07.605Z,67.22
2018-02-12T11:48:07.597Z,63.15
2018-02-12T11:49:07.583Z,60.89
2018-02-12T11:50:07.549Z,58.40
2018-02-12T11:51:07.547Z,58.11
2018-02-12T11:52:07.528Z,58.34
2018-02-12T11:53:07.540Z,58.86
2018-02-12T11:54:07.505Z,57.15
2018-02-12T11:55:07.524Z,55.98
2018-02-12T11:56:07.481Z,57.32
2018-02-12T11:57:07.470Z,58.30
2018-02-12T11:58:07.458Z,57.71
2018-02-12T11:59:07.450Z,58.64
2018-02-12T12:00:07.437Z,58.67
2018-02-12T12:01:07.459Z,57.42
2018-02-12T12:02:07.420Z,57.54
2018-02-12T12:03:07.423Z,55.19
2018-02-12T12:04:07.405Z,56.58
2018-02-12T12:05:07.416Z,59.46
2018-02-12T12:06:07.383Z,62.60
2018-02-12T12:07:07.379Z,64.90
2018-02-12T12:08:07.393Z,64.90
2018-02-12T12:09:07.351Z,63.34
2018-02-12T12:10:07.354Z,64.19
2018-02-12T12:11:07.330Z,63.93
2018-02-12T12:12:07.323Z,61.97
2018-02-12T12:13:07.333Z,60.60
2018-02-12T12:14:07.302Z,62.60
2018-02-12T12:15:07.288Z,63.18
2018-02-12T12:16:07.283Z,61.97
2018-02-12T12:17:07.292Z,58.73
2018-02-12T12:18:07.252Z,57.68
2018-02-12T12:19:07.250Z,58.11
2018-02-12T12:20:07.270Z,56.21
2018-02-12T12:21:07.225Z,56.93
2018-02-12T12:22:07.216Z,56.05
2018-02-12T12:23:07.271Z,55.88
2018-02-12T12:24:07.215Z,54.73
2018-02-12T12:25:07.190Z,53.97
2018-02-12T12:26:07.178Z,52.97
2018-02-12T12:27:07.247Z,51.91
2018-02-12T12:28:07.160Z,51.86
2018-02-12T12:29:07.181Z,53.11
2018-02-12T12:30:07.163Z,54.44
2018-02-12T12:31:07.165Z,56.02
2018-02-12T12:32:07.153Z,59.79
2018-02-12T12:33:07.145Z,63.34
2018-02-12T12:34:07.116Z,63.54
2018-02-12T12:35:07.104Z,62.82
2018-02-12T12:36:07.115Z,60.08
2018-02-12T12:37:07.112Z,63.44
2018-02-12T12:38:07.097Z,62.89
2018-02-12T12:39:07.091Z,58.73
2018-02-12T12:40:07.066Z,57.12
2018-02-12T12:41:07.067Z,58.68
2018-02-12T12:42:07.038Z,60.89
2018-02-12T12:43:07.051Z,61.25
2018-02-12T12:44:07.013Z,61.65
2018-02-12T12:45:07.034Z,61.45
2018-02-12T12:46:07.059Z,60.31
2018-02-12T12:47:07.003Z,60.31
2018-02-12T12:48:06.978Z,59.72
2018-02-12T12:49:07.000Z,58.87
2018-02-12T12:50:06.985Z,57.86
2018-02-12T12:51:06.980Z,56.15
2018-02-12T12:52:06.953Z,54.44